createdAt,value
2022-09-06T00:00:42.165Z,2.55
2022-09-06T00:03:09.322Z,3.45
2022-09-06T00:05:36.902Z,3.50
2022-09-06T00:08:05.685Z,4.22
2022-09-06T00:10:33.051Z,3.33
2022-09-06T00:13:07.613Z,4.00
2022-09-06T00:15:35.661Z,4.03
2022-09-06T00:18:04.501Z,4.18
2022-09-06T00:20:32.404Z,4.47
2022-09-06T00:23:04.613Z,3.95
2022-09-06T00:25:31.847Z,3.80
2022-09-06T00:28:00.523Z,3.75
2022-09-06T00:30:28.668Z,3.83
2022-09-06T00:32:55.838Z,3.97
2022-09-06T00:35:24.858Z,3.55
2022-09-06T00:37:55.849Z,3.58
2022-09-06T00:40:22.714Z,3.10
2022-09-06T00:42:49.373Z,3.33
2022-09-06T00:45:16.092Z,3.58
2022-09-06T00:47:43.801Z,3.47
2022-09-06T00:50:12.275Z,3.20
2022-09-06T00:52:39.999Z,3.42
2022-09-06T00:55:07.264Z,3.22
2022-09-06T00:57:35.071Z,3.17
2022-09-06T01:00:04.372Z,3.80
2022-09-06T01:02:31.177Z,3.72
2022-09-06T01:04:58.071Z,3.75
2022-09-06T01:07:39.880Z,3.08
2022-09-06T01:10:29.629Z,3.78
2022-09-06T01:13:02.128Z,3.53
2022-09-06T01:15:51.652Z,3.92
2022-09-06T01:18:24.061Z,3.28
2022-09-06T01:21:08.957Z,3.60
2022-09-06T01:23:53.754Z,3.45
2022-09-06T01:26:39.311Z,3.50
2022-09-06T01:29:29.534Z,3.65
2022-09-06T01:32:09.353Z,4.00
2022-09-06T01:34:41.798Z,3.13
2022-09-06T01:37:20.302Z,3.55
2022-09-06T01:39:47.084Z,3.00
2022-09-06T01:42:21.178Z,3.42
2022-09-06T01:44:54.476Z,3.53
2022-09-06T01:48:12.154Z,3.15
2022-09-06T01:51:02.599Z,3.80
2022-09-06T01:53:48.130Z,2.95
2022-09-06T01:56:27.084Z,3.67
2022-09-06T01:59:10.297Z,3.95
2022-09-06T02:01:37.034Z,3.78
2022-09-06T02:04:18.579Z,4.10
2022-09-06T02:06:53.243Z,4.50
2022-09-06T02:09:23.323Z,3.67
2022-09-06T02:11:53.220Z,4.05
2022-09-06T02:14:42.358Z,4.60
2022-09-06T02:17:11.189Z,5.05
2022-09-06T02:19:46.287Z,4.45
2022-09-06T02:22:15.299Z,4.55
2022-09-06T02:24:42.628Z,4.32
2022-09-06T02:27:09.346Z,4.70
2022-09-06T02:29:36.184Z,5.05
2022-09-06T02:32:23.923Z,4.70
2022-09-06T02:34:52.353Z,6.00
2022-09-06T02:37:19.791Z,5.47
2022-09-06T02:39:46.549Z,5.53
2022-09-06T02:42:14.806Z,5.18
2022-09-06T02:44:41.589Z,5.93
2022-09-06T02:47:08.405Z,5.82
2022-09-06T02:49:35.263Z,5.38
2022-09-06T02:52:02.056Z,5.28
2022-09-06T02:54:28.793Z,5.32
2022-09-06T02:56:55.492Z,5.95
2022-09-06T02:59:22.227Z,5.28
2022-09-06T03:01:49.030Z,4.90
2022-09-06T03:04:15.743Z,4.88
2022-09-06T03:06:42.440Z,4.85
2022-09-06T03:09:10.497Z,4.88
2022-09-06T03:11:38.178Z,4.68
2022-09-06T03:14:05.130Z,5.18
2022-09-06T03:16:31.837Z,5.40
2022-09-06T03:18:58.587Z,5.18
2022-09-06T03:21:25.314Z,5.50
2022-09-06T03:23:52.551Z,5.43
2022-09-06T03:26:19.245Z,5.45
2022-09-06T03:28:46.048Z,5.60
2022-09-06T03:31:13.057Z,5.07
2022-09-06T03:33:39.950Z,5.85
2022-09-06T03:36:06.943Z,4.97
2022-09-06T03:38:34.261Z,6.10
2022-09-06T03:41:01.018Z,5.88
2022-09-06T03:43:28.306Z,8.70
2022-09-06T03:45:57.426Z,6.90
2022-09-06T03:50:54.330Z,5.85
2022-09-06T03:53:22.219Z,6.40
2022-09-06T03:55:50.850Z,6.28
2022-09-06T03:58:19.121Z,6.78
2022-09-06T04:00:45.931Z,7.45
2022-09-06T04:03:12.958Z,7.35
2022-09-06T04:05:39.701Z,7.07
2022-09-06T04:08:06.527Z,8.40
2022-09-06T04:10:33.981Z,11.93
2022-09-06T04:13:00.958Z,6.80
2022-09-06T04:15:27.839Z,7.47
2022-09-06T04:17:54.583Z,6.78
2022-09-06T04:20:21.287Z,7.30
2022-09-06T04:22:47.983Z,9.05
2022-09-06T04:25:14.680Z,9.68
2022-09-06T04:27:41.444Z,5.63
2022-09-06T04:30:08.709Z,6.72
2022-09-06T04:32:35.464Z,6.47
2022-09-06T04:35:02.243Z,6.65
2022-09-06T04:37:28.915Z,5.65
2022-09-06T04:39:55.777Z,7.30
2022-09-06T04:42:22.558Z,6.20
2022-09-06T04:44:49.280Z,7.60
2022-09-06T04:47:18.216Z,6.75
2022-09-06T04:52:11.962Z,6.25
2022-09-06T04:54:38.654Z,9.73
2022-09-06T04:57:05.517Z,9.20
2022-09-06T04:59:32.904Z,8.02
2022-09-06T05:01:59.797Z,10.40
2022-09-06T05:04:26.746Z,6.25
2022-09-06T05:07:19.844Z,5.97
2022-09-06T05:09:46.520Z,6.03
2022-09-06T05:12:13.473Z,7.13
2022-09-06T05:14:40.248Z,6.25
2022-09-06T05:17:06.907Z,7.43
2022-09-06T05:19:33.677Z,5.55
2022-09-06T05:22:00.389Z,6.53
2022-09-06T05:24:27.078Z,6.40
2022-09-06T05:26:53.794Z,7.28
2022-09-06T05:29:20.598Z,6.90
2022-09-06T05:31:47.369Z,6.75
2022-09-06T05:34:15.165Z,9.15
2022-09-06T05:36:42.153Z,7.57
2022-09-06T05:39:08.918Z,7.15
2022-09-06T05:41:35.655Z,8.23
2022-09-06T05:44:02.774Z,7.07
2022-09-06T05:46:29.501Z,5.72
2022-09-06T05:49:00.517Z,6.60
2022-09-06T05:51:27.412Z,6.78
2022-09-06T05:53:54.111Z,6.80
2022-09-06T05:56:22.380Z,6.90
2022-09-06T05:58:49.046Z,6.80
2022-09-06T06:01:19.722Z,6.43
2022-09-06T06:03:53.062Z,7.43
2022-09-06T06:06:21.107Z,11.90
2022-09-06T06:08:48.204Z,13.80
2022-09-06T06:11:15.109Z,14.80
2022-09-06T06:13:43.277Z,17.38
2022-09-06T06:16:12.534Z,15.43
2022-09-06T06:18:39.418Z,16.77
2022-09-06T06:21:09.226Z,20.52
2022-09-06T06:23:35.982Z,17.70
2022-09-06T06:26:02.933Z,16.48
2022-09-06T06:28:29.659Z,14.90
2022-09-06T06:30:56.352Z,13.70
2022-09-06T06:33:23.051Z,12.52
2022-09-06T06:36:00.780Z,10.65
2022-09-06T06:38:39.218Z,9.60
2022-09-06T06:41:07.485Z,8.00
2022-09-06T06:43:38.026Z,8.07
2022-09-06T06:46:08.828Z,9.60
2022-09-06T06:48:37.147Z,8.13
2022-09-06T06:51:04.169Z,7.68
2022-09-06T06:53:30.936Z,7.88
2022-09-06T06:55:57.598Z,7.22
2022-09-06T06:58:24.397Z,7.05
2022-09-06T07:00:51.178Z,5.32
2022-09-06T07:03:18.493Z,5.40
2022-09-06T07:08:34.711Z,3.80
2022-09-06T07:11:01.469Z,2.13
2022-09-06T07:13:28.356Z,2.50
2022-09-06T07:16:16.190Z,2.40
2022-09-06T07:18:43.757Z,3.67
2022-09-06T07:26:31.891Z,1.67
2022-09-06T07:29:01.042Z,8.00
2022-09-06T07:34:16.112Z,1.73
2022-09-06T07:36:42.811Z,1.75
2022-09-06T07:39:09.465Z,1.60
2022-09-06T07:41:36.145Z,1.52
2022-09-06T07:44:03.408Z,2.15
2022-09-06T07:46:30.139Z,1.63
2022-09-06T07:48:56.935Z,1.70
2022-09-06T07:51:23.654Z,1.50
2022-09-06T07:54:06.901Z,2.33
2022-09-06T07:56:39.353Z,2.22
2022-09-06T07:59:06.626Z,1.75
2022-09-06T08:01:37.853Z,2.47
2022-09-06T08:04:15.499Z,1.95
2022-09-06T08:09:35.188Z,1.90
2022-09-06T08:12:07.501Z,1.65
2022-09-06T08:14:35.134Z,1.67
2022-09-06T08:17:02.603Z,2.55
2022-09-06T08:19:29.355Z,2.20
2022-09-06T08:21:56.401Z,2.00
2022-09-06T08:24:23.373Z,1.90
2022-09-06T08:26:50.371Z,2.03
2022-09-06T08:29:17.232Z,1.83
2022-09-06T08:31:44.804Z,1.90
2022-09-06T08:34:15.367Z,1.80
2022-09-06T08:36:42.754Z,2.03
2022-09-06T08:39:10.409Z,1.98
2022-09-06T08:41:53.925Z,1.50
2022-09-06T08:47:19.670Z,3.08
2022-09-06T08:49:48.676Z,1.70
2022-09-06T08:53:16.230Z,1.83
2022-09-06T08:55:56.054Z,2.05
2022-09-06T08:58:57.874Z,2.00
2022-09-06T09:01:30.293Z,1.63
2022-09-06T09:03:57.630Z,2.50
2022-09-06T09:06:24.837Z,4.82
2022-09-06T09:09:08.649Z,2.05
2022-09-06T09:11:36.361Z,2.13
2022-09-06T09:14:06.266Z,1.80
2022-09-06T09:16:33.285Z,1.77
2022-09-06T09:19:03.092Z,1.83
2022-09-06T09:21:34.278Z,1.80
2022-09-06T09:24:10.109Z,2.55
2022-09-06T09:26:57.876Z,1.77
2022-09-06T09:29:28.674Z,2.00
2022-09-06T09:31:57.639Z,1.88
2022-09-06T09:34:34.431Z,2.15
2022-09-06T09:39:59.524Z,1.52
2022-09-06T09:42:29.334Z,1.92
2022-09-06T09:44:56.924Z,1.80
2022-09-06T09:47:28.666Z,3.03
2022-09-06T09:49:56.276Z,1.60
2022-09-06T09:52:31.666Z,1.92
2022-09-06T09:55:03.474Z,2.42
2022-09-06T09:57:31.825Z,1.88
2022-09-06T10:00:03.015Z,1.70
2022-09-06T10:02:35.881Z,2.60
2022-09-06T10:05:04.914Z,1.70
2022-09-06T10:07:33.186Z,1.88
2022-09-06T10:10:11.593Z,2.13
2022-09-06T10:12:40.222Z,2.42
2022-09-06T10:15:12.460Z,1.90
2022-09-06T10:17:52.696Z,2.05
2022-09-06T10:20:19.389Z,1.73
2022-09-06T10:22:56.383Z,2.30
2022-09-06T10:25:48.908Z,1.67
2022-09-06T10:28:29.525Z,1.80
2022-09-06T10:31:24.506Z,1.70
2022-09-06T10:34:16.678Z,1.60
2022-09-06T10:37:04.705Z,2.05
2022-09-06T10:39:31.366Z,1.67
2022-09-06T10:42:21.177Z,1.42
2022-09-06T10:45:00.121Z,1.92
2022-09-06T10:47:33.253Z,1.90
2022-09-06T10:50:01.741Z,2.08
2022-09-06T10:52:34.003Z,1.83
2022-09-06T10:55:04.609Z,1.92
2022-09-06T11:00:47.409Z,1.90
2022-09-06T11:04:00.160Z,1.55
2022-09-06T11:06:31.811Z,1.35
2022-09-06T11:09:13.668Z,1.38
2022-09-06T11:11:49.984Z,1.45
2022-09-06T11:14:17.292Z,1.85
2022-09-06T11:16:48.550Z,1.50
2022-09-06T11:19:25.502Z,2.05
2022-09-06T11:21:55.019Z,6.63
2022-09-06T11:24:50.638Z,1.85
2022-09-06T11:27:22.239Z,1.92
2022-09-06T11:29:56.372Z,2.05
2022-09-06T11:32:39.003Z,2.47
2022-09-06T11:35:11.316Z,1.55
2022-09-06T11:37:45.293Z,1.98
2022-09-06T11:42:55.452Z,1.42
2022-09-06T11:45:52.061Z,2.08
2022-09-06T11:48:25.369Z,1.48
2022-09-06T11:50:54.954Z,1.70
2022-09-06T11:53:23.494Z,1.70
2022-09-06T11:56:02.543Z,1.52
2022-09-06T11:58:51.816Z,1.65
2022-09-06T12:01:18.967Z,1.63
2022-09-06T12:04:04.915Z,1.55
2022-09-06T12:06:56.233Z,2.00
2022-09-06T12:09:34.637Z,3.58
2022-09-06T12:12:02.104Z,1.60
2022-09-06T12:14:31.292Z,1.90
2022-09-06T12:16:58.053Z,3.28
2022-09-06T12:19:44.142Z,2.67
2022-09-06T12:22:35.369Z,1.52
2022-09-06T12:25:07.011Z,1.83
2022-09-06T12:27:36.761Z,1.60
2022-09-06T12:30:12.224Z,1.85
2022-09-06T12:32:45.542Z,1.83
2022-09-06T12:38:16.194Z,1.60
2022-09-06T12:40:48.265Z,2.05
2022-09-06T12:43:16.989Z,1.83
2022-09-06T12:45:50.761Z,1.63
2022-09-06T12:48:29.693Z,2.08
2022-09-06T12:51:06.855Z,1.60
2022-09-06T12:53:35.008Z,1.70
2022-09-06T12:56:12.708Z,1.48
2022-09-06T12:58:40.038Z,1.92
2022-09-06T13:01:29.850Z,1.67
2022-09-06T13:04:03.426Z,1.60
2022-09-06T13:06:32.991Z,2.00
2022-09-06T13:09:00.139Z,2.13
2022-09-06T13:11:34.337Z,1.63
2022-09-06T13:14:02.196Z,2.03
2022-09-06T13:16:35.865Z,2.00
2022-09-06T13:19:35.886Z,2.15
2022-09-06T13:22:05.627Z,1.58
2022-09-06T13:24:35.559Z,1.50
2022-09-06T13:27:23.203Z,1.60
2022-09-06T13:30:04.648Z,1.40
2022-09-06T13:32:31.672Z,2.00
2022-09-06T13:34:59.454Z,1.83
2022-09-06T13:37:28.949Z,2.22
2022-09-06T13:39:57.487Z,1.65
2022-09-06T13:45:01.899Z,1.85
2022-09-06T13:47:29.886Z,2.13
2022-09-06T13:49:56.709Z,1.73
2022-09-06T13:52:24.889Z,1.80
2022-09-06T13:54:51.562Z,1.90
2022-09-06T13:57:24.164Z,2.10
2022-09-06T13:59:51.370Z,1.75
2022-09-06T14:02:19.979Z,4.10
2022-09-06T14:04:46.893Z,2.03
2022-09-06T14:07:13.729Z,1.80
2022-09-06T14:09:40.443Z,3.08
2022-09-06T14:12:07.157Z,1.58
2022-09-06T14:14:34.426Z,1.45
2022-09-06T14:17:01.465Z,1.65
2022-09-06T14:19:29.019Z,1.90
2022-09-06T14:21:55.940Z,1.75
2022-09-06T14:24:22.779Z,1.95
2022-09-06T14:26:49.486Z,2.97
2022-09-06T14:29:16.370Z,1.75
2022-09-06T14:31:43.094Z,1.90
2022-09-06T14:34:09.834Z,1.90
2022-09-06T14:36:36.557Z,2.13
2022-09-06T14:39:04.021Z,2.10
2022-09-06T14:41:30.748Z,1.40
2022-09-06T14:43:58.654Z,1.83
2022-09-06T14:46:26.992Z,3.75
2022-09-06T14:49:02.095Z,1.98
2022-09-06T14:56:24.972Z,1.55
2022-09-06T14:58:51.793Z,1.38
2022-09-06T15:01:21.121Z,1.92
2022-09-06T15:03:51.667Z,1.75
2022-09-06T15:06:23.133Z,2.13
2022-09-06T15:08:50.115Z,3.17
2022-09-06T15:11:34.716Z,2.17
2022-09-06T15:14:07.897Z,2.60
2022-09-06T15:16:37.347Z,2.22
2022-09-06T15:19:04.427Z,1.73
2022-09-06T15:21:32.243Z,2.00
2022-09-06T15:24:00.208Z,3.42
2022-09-06T15:26:26.945Z,1.70
2022-09-06T15:28:53.797Z,1.90
2022-09-06T15:31:21.171Z,5.35
2022-09-06T15:33:49.022Z,2.20
2022-09-06T15:36:16.400Z,2.20
2022-09-06T15:38:50.757Z,3.10
2022-09-06T15:41:20.201Z,2.33
2022-09-06T15:43:48.873Z,5.65
2022-09-06T15:46:17.259Z,2.25
2022-09-06T15:48:48.929Z,2.42
2022-09-06T15:51:18.016Z,2.15
2022-09-06T15:53:45.297Z,2.05
2022-09-06T15:56:15.233Z,3.17
2022-09-06T15:58:41.910Z,2.92
2022-09-06T16:01:12.381Z,2.85
2022-09-06T16:03:47.190Z,3.90
2022-09-06T16:08:55.644Z,1.98
2022-09-06T16:11:22.362Z,2.83
2022-09-06T16:13:49.569Z,2.30
2022-09-06T16:16:16.935Z,2.22
2022-09-06T16:18:44.785Z,6.10
2022-09-06T16:21:17.996Z,2.65
2022-09-06T16:23:49.730Z,3.72
2022-09-06T16:26:21.126Z,3.40
2022-09-06T16:28:50.004Z,4.97
2022-09-06T16:31:17.194Z,3.67
2022-09-06T16:33:45.593Z,2.22
2022-09-06T16:36:13.958Z,3.78
2022-09-06T16:38:42.146Z,4.63
2022-09-06T16:41:49.256Z,2.85
2022-09-06T16:44:18.105Z,2.63
2022-09-06T16:46:46.648Z,2.63
2022-09-06T16:49:15.357Z,3.55
2022-09-06T16:51:42.029Z,2.63
2022-09-06T16:54:08.769Z,2.33
2022-09-06T16:56:36.281Z,2.28
2022-09-06T16:59:06.927Z,3.08
2022-09-06T17:01:35.042Z,7.85
2022-09-06T17:04:02.345Z,2.83
2022-09-06T17:06:29.842Z,2.72
2022-09-06T17:09:00.272Z,3.03
2022-09-06T17:11:28.133Z,2.17
2022-09-06T17:13:55.698Z,2.90
2022-09-06T17:16:41.414Z,3.65
2022-09-06T17:19:09.175Z,3.20
2022-09-06T17:21:37.169Z,4.15
2022-09-06T17:24:05.527Z,3.25
2022-09-06T17:26:34.733Z,2.67
2022-09-06T17:29:01.540Z,2.85
2022-09-06T17:31:28.574Z,2.50
2022-09-06T17:33:55.571Z,3.05
2022-09-06T17:36:24.766Z,3.13
2022-09-06T17:38:53.772Z,2.88
2022-09-06T17:41:25.406Z,2.75
2022-09-06T17:43:55.521Z,2.42
2022-09-06T17:46:28.365Z,2.25
2022-09-06T17:48:56.010Z,3.08
2022-09-06T17:51:23.100Z,2.83
2022-09-06T17:53:49.937Z,3.13
2022-09-06T17:56:17.749Z,2.53
2022-09-06T17:58:52.296Z,2.45
2022-09-06T18:01:19.024Z,4.22
2022-09-06T18:03:47.139Z,8.18
2022-09-06T18:06:20.528Z,3.22
2022-09-06T18:08:48.032Z,2.80
2022-09-06T18:11:20.949Z,2.13
2022-09-06T18:13:48.186Z,3.38
2022-09-06T18:16:15.018Z,2.95
2022-09-06T18:18:41.936Z,2.38
2022-09-06T18:21:08.653Z,2.53
2022-09-06T18:23:35.903Z,2.50
2022-09-06T18:26:07.442Z,2.92
2022-09-06T18:28:36.566Z,2.05
2022-09-06T18:31:11.444Z,3.15
2022-09-06T18:33:39.162Z,2.38
2022-09-06T18:36:07.369Z,2.38
2022-09-06T18:38:38.153Z,2.55
2022-09-06T18:41:06.846Z,2.38
2022-09-06T18:43:36.455Z,3.10
2022-09-06T18:46:08.513Z,2.40
2022-09-06T18:48:36.865Z,5.63
2022-09-06T18:51:08.041Z,3.65
2022-09-06T18:53:35.298Z,3.90
2022-09-06T18:56:02.242Z,2.60
2022-09-06T18:58:29.126Z,2.17
2022-09-06T19:01:05.551Z,2.60
2022-09-06T19:03:33.215Z,2.47
2022-09-06T19:06:08.595Z,2.67
2022-09-06T19:08:35.467Z,2.17
2022-09-06T19:11:05.114Z,4.32
2022-09-06T19:13:32.622Z,4.97
2022-09-06T19:15:59.618Z,3.53
2022-09-06T19:18:27.374Z,3.47
2022-09-06T19:21:15.566Z,3.50
2022-09-06T19:23:45.004Z,5.18
2022-09-06T19:26:17.062Z,4.28
2022-09-06T19:28:52.338Z,4.05
2022-09-06T19:31:19.572Z,4.15
2022-09-06T19:33:47.987Z,6.80
2022-09-06T19:36:15.882Z,7.68
2022-09-06T19:39:01.889Z,4.40
2022-09-06T19:41:30.479Z,4.72
2022-09-06T19:43:58.158Z,4.80
2022-09-06T19:46:25.293Z,5.75
2022-09-06T19:48:53.652Z,4.13
2022-09-06T19:51:20.955Z,4.45
2022-09-06T19:53:57.746Z,5.45
2022-09-06T19:56:27.149Z,4.15
2022-09-06T19:58:55.713Z,4.65
2022-09-06T20:01:23.679Z,3.90
2022-09-06T20:03:50.481Z,4.18
2022-09-06T20:06:17.198Z,4.35
2022-09-06T20:08:44.056Z,4.25
2022-09-06T20:11:12.727Z,5.68
2022-09-06T20:13:40.175Z,4.20
2022-09-06T20:16:10.765Z,5.28
2022-09-06T20:18:37.894Z,5.93
2022-09-06T20:21:05.371Z,4.28
2022-09-06T20:23:34.122Z,4.60
2022-09-06T20:26:09.444Z,4.78
2022-09-06T20:28:37.160Z,16.00
2022-09-06T20:31:10.021Z,4.82
2022-09-06T20:33:37.878Z,8.10
2022-09-06T20:36:07.266Z,4.70
2022-09-06T20:38:37.580Z,4.07
2022-09-06T20:41:06.490Z,5.93
2022-09-06T20:43:36.674Z,6.18
2022-09-06T20:46:11.852Z,10.85
2022-09-06T20:51:12.434Z,12.02
2022-09-06T20:53:42.357Z,9.60
2022-09-06T20:56:13.821Z,9.07
2022-09-06T20:58:41.415Z,5.60
2022-09-06T21:01:15.324Z,5.55
2022-09-06T21:03:42.575Z,4.97
2022-09-06T21:06:10.971Z,4.88
2022-09-06T21:08:42.353Z,4.70
2022-09-06T21:11:10.402Z,5.03
2022-09-06T21:13:37.896Z,6.93
2022-09-06T21:16:05.245Z,5.70
2022-09-06T21:18:32.884Z,5.38
2022-09-06T21:21:04.777Z,4.82
2022-09-06T21:23:35.342Z,5.35
2022-09-06T21:26:06.924Z,6.07
2022-09-06T21:28:35.441Z,6.55
2022-09-06T21:31:13.732Z,5.13
2022-09-06T21:33:42.302Z,5.78
2022-09-06T21:36:11.742Z,4.95
2022-09-06T21:38:40.608Z,5.72
2022-09-06T21:41:08.661Z,6.55
2022-09-06T21:43:35.801Z,5.65
2022-09-06T21:46:04.317Z,6.43
2022-09-06T21:48:31.125Z,5.82
2022-09-06T21:50:58.154Z,5.68
2022-09-06T21:53:26.683Z,5.80
2022-09-06T21:55:53.363Z,5.40
2022-09-06T21:58:20.272Z,5.68
2022-09-06T22:00:52.568Z,5.07
2022-09-06T22:03:19.845Z,5.18
2022-09-06T22:05:47.380Z,6.35
2022-09-06T22:08:14.061Z,5.85
2022-09-06T22:10:40.899Z,6.00
2022-09-06T22:13:07.719Z,5.35
2022-09-06T22:15:38.087Z,4.80
2022-09-06T22:18:05.288Z,4.53
2022-09-06T22:20:32.189Z,4.15
2022-09-06T22:22:58.851Z,4.28
2022-09-06T22:25:25.547Z,4.60
2022-09-06T22:27:52.260Z,3.72
2022-09-06T22:30:21.623Z,3.97
2022-09-06T22:32:52.739Z,4.25
2022-09-06T22:35:20.329Z,3.58
2022-09-06T22:37:47.036Z,4.53
2022-09-06T22:40:13.790Z,4.32
2022-09-06T22:42:40.520Z,4.13
2022-09-06T22:45:07.653Z,3.60
2022-09-06T22:47:34.346Z,4.45
2022-09-06T22:50:01.093Z,4.93
2022-09-06T22:52:28.070Z,4.00
2022-09-06T22:54:54.742Z,4.47
2022-09-06T22:57:21.420Z,3.88
2022-09-06T22:59:48.641Z,3.55
2022-09-06T23:02:15.364Z,3.63
2022-09-06T23:04:42.058Z,4.03
2022-09-06T23:07:08.796Z,3.35
2022-09-06T23:09:35.454Z,3.80
2022-09-06T23:12:02.449Z,3.63
2022-09-06T23:14:29.138Z,3.83
2022-09-06T23:16:55.998Z,4.05
2022-09-06T23:19:22.642Z,5.47
2022-09-06T23:21:49.431Z,3.70
2022-09-06T23:24:16.181Z,3.10
2022-09-06T23:26:42.837Z,3.63
2022-09-06T23:29:09.590Z,3.47
2022-09-06T23:31:36.498Z,3.65
2022-09-06T23:34:05.116Z,4.22
2022-09-06T23:36:32.438Z,4.05
2022-09-06T23:38:59.860Z,4.32
2022-09-06T23:41:26.591Z,4.65
2022-09-06T23:43:53.431Z,4.50
2022-09-06T23:46:20.457Z,4.97
2022-09-06T23:48:47.532Z,4.30
2022-09-06T23:51:14.424Z,4.45
2022-09-06T23:53:41.414Z,4.03
2022-09-06T23:56:08.526Z,4.63
2022-09-06T23:58:35.439Z,4.20
